sensor_id;sensor_type;location;lat;lon;timestamp;pressure;altitude;pressure_sealevel;temperature;humidity
19590;BME280;12231;42.782;23.388;2023-07-29T00:00:50;95373.09;;;22.84;63.63
19590;BME280;12231;42.782;23.388;2023-07-29T00:03:15;95373.75;;;22.78;63.50
19590;BME280;12231;42.782;23.388;2023-07-29T00:05:41;95383.13;;;22.81;63.79
19590;BME280;12231;42.782;23.388;2023-07-29T00:08:06;95383.97;;;22.81;63.70
19590;BME280;12231;42.782;23.388;2023-07-29T00:10:32;95389.69;;;22.77;63.32
19590;BME280;12231;42.782;23.388;2023-07-29T00:13:00;95384.44;;;22.77;63.50
19590;BME280;12231;42.782;23.388;2023-07-29T00:15:26;95396.13;;;22.74;63.57
19590;BME280;12231;42.782;23.388;2023-07-29T00:17:51;95387.63;;;22.64;63.45
19590;BME280;12231;42.782;23.388;2023-07-29T00:20:16;95388.94;;;22.68;63.54
19590;BME280;12231;42.782;23.388;2023-07-29T00:22:42;95390.41;;;22.63;63.47
19590;BME280;12231;42.782;23.388;2023-07-29T00:25:07;95384.16;;;22.64;63.17
19590;BME280;12231;42.782;23.388;2023-07-29T00:27:33;95382.03;;;22.67;63.29
19590;BME280;12231;42.782;23.388;2023-07-29T00:29:58;95373.81;;;22.62;63.15
19590;BME280;12231;42.782;23.388;2023-07-29T00:32:24;95375.47;;;22.63;63.24
19590;BME280;12231;42.782;23.388;2023-07-29T00:34:49;95377.97;;;22.49;63.27
19590;BME280;12231;42.782;23.388;2023-07-29T00:37:14;95373.56;;;22.33;64.13
19590;BME280;12231;42.782;23.388;2023-07-29T00:39:40;95382.97;;;22.20;65.12
19590;BME280;12231;42.782;23.388;2023-07-29T00:42:06;95379.34;;;22.13;65.05
19590;BME280;12231;42.782;23.388;2023-07-29T00:44:31;95380.03;;;22.07;65.87
19590;BME280;12231;42.782;23.388;2023-07-29T00:46:57;95376.25;;;21.93;66.59
19590;BME280;12231;42.782;23.388;2023-07-29T00:49:22;95377.56;;;21.89;66.75
19590;BME280;12231;42.782;23.388;2023-07-29T00:51:49;95372.97;;;21.91;67.40
19590;BME280;12231;42.782;23.388;2023-07-29T00:54:14;95375.59;;;21.91;67.55
19590;BME280;12231;42.782;23.388;2023-07-29T00:56:40;95374.94;;;21.97;67.39
19590;BME280;12231;42.782;23.388;2023-07-29T00:59:06;95383.66;;;21.90;67.62
19590;BME280;12231;42.782;23.388;2023-07-29T01:01:32;95377.41;;;21.99;67.08
19590;BME280;12231;42.782;23.388;2023-07-29T01:03:57;95374.94;;;22.05;66.95
19590;BME280;12231;42.782;23.388;2023-07-29T01:09:48;95366.09;;;21.98;67.78
19590;BME280;12231;42.782;23.388;2023-07-29T01:12:35;95369.38;;;21.92;68.38
19590;BME280;12231;42.782;23.388;2023-07-29T01:15:16;95363.13;;;21.69;71.31
19590;BME280;12231;42.782;23.388;2023-07-29T01:17:53;95377.00;;;21.21;71.46
19590;BME280;12231;42.782;23.388;2023-07-29T01:20:20;95376.66;;;20.33;75.43
19590;BME280;12231;42.782;23.388;2023-07-29T01:22:47;95377.81;;;19.87;76.86
19590;BME280;12231;42.782;23.388;2023-07-29T01:25:13;95383.94;;;19.53;80.00
19590;BME280;12231;42.782;23.388;2023-07-29T01:27:40;95384.69;;;19.88;79.70
19590;BME280;12231;42.782;23.388;2023-07-29T01:30:06;95386.97;;;20.09;78.47
19590;BME280;12231;42.782;23.388;2023-07-29T01:35:23;95383.56;;;19.91;77.42
19590;BME280;12231;42.782;23.388;2023-07-29T01:37:55;95386.69;;;19.69;78.97
19590;BME280;12231;42.782;23.388;2023-07-29T01:40:23;95378.75;;;20.04;77.22
19590;BME280;12231;42.782;23.388;2023-07-29T01:42:51;95376.88;;;20.48;75.38
19590;BME280;12231;42.782;23.388;2023-07-29T01:45:17;95386.13;;;20.60;73.89
19590;BME280;12231;42.782;23.388;2023-07-29T01:47:42;95383.44;;;20.85;73.16
19590;BME280;12231;42.782;23.388;2023-07-29T01:50:08;95375.66;;;21.01;71.96
19590;BME280;12231;42.782;23.388;2023-07-29T01:52:34;95378.69;;;20.81;71.28
19590;BME280;12231;42.782;23.388;2023-07-29T01:54:59;95380.94;;;20.76;72.07
19590;BME280;12231;42.782;23.388;2023-07-29T01:57:25;95377.38;;;20.77;72.27
19590;BME280;12231;42.782;23.388;2023-07-29T01:59:50;95383.09;;;20.88;72.06
19590;BME280;12231;42.782;23.388;2023-07-29T02:02:16;95381.56;;;21.11;71.22
19590;BME280;12231;42.782;23.388;2023-07-29T02:04:41;95385.88;;;21.28;70.34
19590;BME280;12231;42.782;23.388;2023-07-29T02:07:07;95382.78;;;21.41;69.81
19590;BME280;12231;42.782;23.388;2023-07-29T02:09:32;95381.31;;;21.46;69.63
19590;BME280;12231;42.782;23.388;2023-07-29T02:11:57;95382.78;;;21.41;69.82
19590;BME280;12231;42.782;23.388;2023-07-29T02:14:23;95384.28;;;21.51;69.05
19590;BME280;12231;42.782;23.388;2023-07-29T02:16:48;95390.31;;;21.52;68.81
19590;BME280;12231;42.782;23.388;2023-07-29T02:19:15;95383.94;;;21.54;68.52
19590;BME280;12231;42.782;23.388;2023-07-29T02:21:41;95384.28;;;21.51;68.49
19590;BME280;12231;42.782;23.388;2023-07-29T02:24:06;95387.22;;;21.56;68.03
19590;BME280;12231;42.782;23.388;2023-07-29T02:26:31;95388.50;;;21.28;67.77
19590;BME280;12231;42.782;23.388;2023-07-29T02:28:57;95391.78;;;21.30;68.05
19590;BME280;12231;42.782;23.388;2023-07-29T02:31:24;95385.22;;;21.34;67.85
19590;BME280;12231;42.782;23.388;2023-07-29T02:33:49;95387.03;;;21.42;67.41
19590;BME280;12231;42.782;23.388;2023-07-29T02:36:16;95388.84;;;21.33;67.76
19590;BME280;12231;42.782;23.388;2023-07-29T02:38:42;95387.53;;;21.37;67.74
19590;BME280;12231;42.782;23.388;2023-07-29T02:41:10;95388.53;;;21.36;67.35
19590;BME280;12231;42.782;23.388;2023-07-29T02:43:37;95389.19;;;21.38;67.50
19590;BME280;12231;42.782;23.388;2023-07-29T02:46:03;95395.41;;;21.45;66.89
19590;BME280;12231;42.782;23.388;2023-07-29T02:48:29;95393.94;;;21.35;67.30
19590;BME280;12231;42.782;23.388;2023-07-29T02:50:55;95393.44;;;21.39;67.51
19590;BME280;12231;42.782;23.388;2023-07-29T02:53:22;95389.19;;;21.46;67.42
19590;BME280;12231;42.782;23.388;2023-07-29T02:55:47;95393.78;;;21.44;67.24
19590;BME280;12231;42.782;23.388;2023-07-29T02:58:13;95393.44;;;21.47;67.11
19590;BME280;12231;42.782;23.388;2023-07-29T03:00:38;95392.63;;;21.47;66.97
19590;BME280;12231;42.782;23.388;2023-07-29T03:03:07;95394.44;;;21.54;66.51
19590;BME280;12231;42.782;23.388;2023-07-29T03:05:32;95393.44;;;21.55;66.32
19590;BME280;12231;42.782;23.388;2023-07-29T03:07:58;95401.97;;;21.49;66.15
19590;BME280;12231;42.782;23.388;2023-07-29T03:10:23;95406.03;;;21.36;66.28
19590;BME280;12231;42.782;23.388;2023-07-29T03:12:48;95412.47;;;21.41;66.21
19590;BME280;12231;42.782;23.388;2023-07-29T03:15:14;95415.88;;;21.42;66.51
19590;BME280;12231;42.782;23.388;2023-07-29T03:17:39;95410.97;;;21.39;65.97
19590;BME280;12231;42.782;23.388;2023-07-29T03:20:07;95417.34;;;21.20;66.77
19590;BME280;12231;42.782;23.388;2023-07-29T03:22:32;95412.78;;;21.30;66.46
19590;BME280;12231;42.782;23.388;2023-07-29T03:24:57;95410.81;;;21.40;65.89
19590;BME280;12231;42.782;23.388;2023-07-29T03:27:23;95403.94;;;21.47;65.89
19590;BME280;12231;42.782;23.388;2023-07-29T03:29:48;95404.78;;;21.48;65.52
19590;BME280;12231;42.782;23.388;2023-07-29T03:32:14;95406.41;;;21.49;65.43
19590;BME280;12231;42.782;23.388;2023-07-29T03:34:39;95410.00;;;21.48;65.08
19590;BME280;12231;42.782;23.388;2023-07-29T03:37:05;95420.50;;;21.48;65.17
19590;BME280;12231;42.782;23.388;2023-07-29T03:39:31;95421.97;;;21.42;65.49
19590;BME280;12231;42.782;23.388;2023-07-29T03:41:57;95423.13;;;21.48;65.24
19590;BME280;12231;42.782;23.388;2023-07-29T03:44:22;95423.59;;;21.43;65.37
19590;BME280;12231;42.782;23.388;2023-07-29T03:46:47;95421.31;;;21.56;65.01
19590;BME280;12231;42.782;23.388;2023-07-29T03:49:13;95413.63;;;21.63;64.54
19590;BME280;12231;42.782;23.388;2023-07-29T03:51:38;95415.47;;;21.87;63.77
19590;BME280;12231;42.782;23.388;2023-07-29T03:54:04;95414.78;;;22.09;63.12
19590;BME280;12231;42.782;23.388;2023-07-29T03:56:29;95410.31;;;22.41;62.24
19590;BME280;12231;42.782;23.388;2023-07-29T03:59:04;95410.41;;;22.80;61.13
19590;BME280;12231;42.782;23.388;2023-07-29T04:01:30;95401.69;;;23.18;59.97
19590;BME280;12231;42.782;23.388;2023-07-29T04:03:57;95405.72;;;23.37;59.52
19590;BME280;12231;42.782;23.388;2023-07-29T04:06:22;95409.53;;;23.57;59.14
19590;BME280;12231;42.782;23.388;2023-07-29T04:08:48;95404.84;;;23.89;58.37
19590;BME280;12231;42.782;23.388;2023-07-29T04:11:14;95406.88;;;24.24;57.00
19590;BME280;12231;42.782;23.388;2023-07-29T04:13:40;95410.53;;;24.53;56.19
19590;BME280;12231;42.782;23.388;2023-07-29T04:16:07;95407.88;;;24.75;55.65
19590;BME280;12231;42.782;23.388;2023-07-29T04:18:32;95407.28;;;25.09;54.70
19590;BME280;12231;42.782;23.388;2023-07-29T04:20:58;95402.63;;;25.25;53.58
19590;BME280;12231;42.782;23.388;2023-07-29T04:23:23;95409.84;;;25.02;52.63
19590;BME280;12231;42.782;23.388;2023-07-29T04:25:49;95418.00;;;25.22;52.80
19590;BME280;12231;42.782;23.388;2023-07-29T04:28:15;95422.19;;;25.16;52.89
19590;BME280;12231;42.782;23.388;2023-07-29T04:30:41;95423.00;;;25.67;52.71
19590;BME280;12231;42.782;23.388;2023-07-29T04:33:06;95419.50;;;26.02;52.33
19590;BME280;12231;42.782;23.388;2023-07-29T04:35:31;95417.25;;;26.54;51.17
19590;BME280;12231;42.782;23.388;2023-07-29T04:37:57;95410.13;;;26.76;51.08
19590;BME280;12231;42.782;23.388;2023-07-29T04:40:22;95415.38;;;27.10;50.09
19590;BME280;12231;42.782;23.388;2023-07-29T04:42:48;95415.78;;;27.54;48.55
19590;BME280;12231;42.782;23.388;2023-07-29T04:45:14;95413.69;;;28.16;47.27
19590;BME280;12231;42.782;23.388;2023-07-29T04:47:39;95414.66;;;28.81;46.05
19590;BME280;12231;42.782;23.388;2023-07-29T04:50:05;95424.03;;;29.09;45.08
19590;BME280;12231;42.782;23.388;2023-07-29T04:52:31;95421.03;;;29.43;43.99
19590;BME280;12231;42.782;23.388;2023-07-29T04:54:56;95428.09;;;29.63;43.64
19590;BME280;12231;42.782;23.388;2023-07-29T04:57:22;95430.72;;;29.76;42.89
19590;BME280;12231;42.782;23.388;2023-07-29T04:59:47;95430.22;;;30.23;42.24
19590;BME280;12231;42.782;23.388;2023-07-29T05:02:13;95428.72;;;30.58;42.02
19590;BME280;12231;42.782;23.388;2023-07-29T05:04:38;95434.56;;;30.91;40.82
19590;BME280;12231;42.782;23.388;2023-07-29T05:07:04;95433.84;;;31.02;39.74
19590;BME280;12231;42.782;23.388;2023-07-29T05:09:29;95429.94;;;31.41;39.22
19590;BME280;12231;42.782;23.388;2023-07-29T05:11:54;95425.25;;;31.54;38.85
19590;BME280;12231;42.782;23.388;2023-07-29T05:14:20;95426.06;;;31.84;37.76
19590;BME280;12231;42.782;23.388;2023-07-29T05:16:45;95431.06;;;31.99;37.61
19590;BME280;12231;42.782;23.388;2023-07-29T05:19:11;95439.31;;;31.79;37.51
19590;BME280;12231;42.782;23.388;2023-07-29T05:21:37;95437.75;;;31.90;37.35
19590;BME280;12231;42.782;23.388;2023-07-29T05:24:03;95436.69;;;32.32;36.31
19590;BME280;12231;42.782;23.388;2023-07-29T05:26:29;95440.53;;;32.25;36.78
19590;BME280;12231;42.782;23.388;2023-07-29T05:28:54;95441.38;;;32.48;36.02
19590;BME280;12231;42.782;23.388;2023-07-29T05:31:20;95444.97;;;33.58;34.68
19590;BME280;12231;42.782;23.388;2023-07-29T05:33:45;95438.56;;;34.26;33.22
19590;BME280;12231;42.782;23.388;2023-07-29T05:36:11;95431.47;;;34.48;32.72
19590;BME280;12231;42.782;23.388;2023-07-29T05:38:36;95438.06;;;34.57;32.65
19590;BME280;12231;42.782;23.388;2023-07-29T05:41:01;95437.03;;;35.73;30.98
19590;BME280;12231;42.782;23.388;2023-07-29T05:43:27;95444.09;;;36.01;29.94
19590;BME280;12231;42.782;23.388;2023-07-29T05:45:53;95437.66;;;36.60;29.25
19590;BME280;12231;42.782;23.388;2023-07-29T05:48:19;95435.25;;;36.90;28.69
19590;BME280;12231;42.782;23.388;2023-07-29T05:50:45;95444.06;;;37.69;27.31
19590;BME280;12231;42.782;23.388;2023-07-29T05:53:10;95445.34;;;38.23;26.54
19590;BME280;12231;42.782;23.388;2023-07-29T05:55:36;95438.88;;;38.34;27.25
19590;BME280;12231;42.782;23.388;2023-07-29T05:58:01;95444.28;;;36.47;28.56
19590;BME280;12231;42.782;23.388;2023-07-29T06:00:26;95437.13;;;37.83;27.46
19590;BME280;12231;42.782;23.388;2023-07-29T06:02:52;95446.69;;;37.54;27.87
19590;BME280;12231;42.782;23.388;2023-07-29T06:05:17;95441.88;;;38.73;26.27
19590;BME280;12231;42.782;23.388;2023-07-29T06:07:43;95442.16;;;38.96;25.86
19590;BME280;12231;42.782;23.388;2023-07-29T06:10:12;95440.75;;;38.43;27.16
19590;BME280;12231;42.782;23.388;2023-07-29T06:12:38;95443.75;;;38.52;26.89
19590;BME280;12231;42.782;23.388;2023-07-29T06:15:04;95446.50;;;37.70;27.05
19590;BME280;12231;42.782;23.388;2023-07-29T06:17:30;95443.72;;;38.32;27.05
19590;BME280;12231;42.782;23.388;2023-07-29T06:19:55;95451.69;;;37.97;27.05
19590;BME280;12231;42.782;23.388;2023-07-29T06:22:21;95444.63;;;35.38;30.90
19590;BME280;12231;42.782;23.388;2023-07-29T06:24:46;95441.19;;;36.60;28.98
19590;BME280;12231;42.782;23.388;2023-07-29T06:27:12;95438.47;;;37.85;28.50
19590;BME280;12231;42.782;23.388;2023-07-29T06:29:37;95443.56;;;37.82;27.47
19590;BME280;12231;42.782;23.388;2023-07-29T06:32:03;95437.91;;;37.78;27.60
19590;BME280;12231;42.782;23.388;2023-07-29T06:34:28;95426.22;;;38.39;26.80
19590;BME280;12231;42.782;23.388;2023-07-29T06:36:54;95426.53;;;37.14;28.39
19590;BME280;12231;42.782;23.388;2023-07-29T06:39:19;95424.34;;;38.30;26.83
19590;BME280;12231;42.782;23.388;2023-07-29T06:41:44;95426.66;;;37.96;27.42
19590;BME280;12231;42.782;23.388;2023-07-29T06:44:10;95414.63;;;38.49;26.18
19590;BME280;12231;42.782;23.388;2023-07-29T06:46:35;95413.53;;;39.00;25.82
19590;BME280;12231;42.782;23.388;2023-07-29T06:49:01;95411.38;;;39.07;25.94
19590;BME280;12231;42.782;23.388;2023-07-29T06:51:26;95412.47;;;39.85;25.08
19590;BME280;12231;42.782;23.388;2023-07-29T06:53:52;95407.19;;;40.57;24.04
19590;BME280;12231;42.782;23.388;2023-07-29T06:56:17;95410.84;;;39.15;25.36
19590;BME280;12231;42.782;23.388;2023-07-29T06:58:43;95412.75;;;38.95;25.30
19590;BME280;12231;42.782;23.388;2023-07-29T07:01:08;95416.09;;;37.75;27.26
19590;BME280;12231;42.782;23.388;2023-07-29T07:03:33;95423.81;;;36.15;29.74
19590;BME280;12231;42.782;23.388;2023-07-29T07:05:59;95417.84;;;37.49;27.77
19590;BME280;12231;42.782;23.388;2023-07-29T07:08:24;95408.25;;;37.73;27.25
19590;BME280;12231;42.782;23.388;2023-07-29T07:10:50;95405.50;;;38.60;27.08
19590;BME280;12231;42.782;23.388;2023-07-29T07:13:15;95412.97;;;36.94;29.34
19590;BME280;12231;42.782;23.388;2023-07-29T07:15:41;95407.09;;;38.66;26.04
19590;BME280;12231;42.782;23.388;2023-07-29T07:18:06;95407.88;;;39.91;25.55
19590;BME280;12231;42.782;23.388;2023-07-29T07:20:32;95414.66;;;39.88;24.67
19590;BME280;12231;42.782;23.388;2023-07-29T07:22:57;95410.56;;;38.57;25.49
19590;BME280;12231;42.782;23.388;2023-07-29T07:25:22;95413.97;;;37.87;26.68
19590;BME280;12231;42.782;23.388;2023-07-29T07:27:48;95412.47;;;38.46;26.32
19590;BME280;12231;42.782;23.388;2023-07-29T07:30:14;95403.78;;;38.04;25.77
19590;BME280;12231;42.782;23.388;2023-07-29T07:32:39;95402.75;;;38.20;27.35
19590;BME280;12231;42.782;23.388;2023-07-29T07:35:05;95395.53;;;40.23;24.57
19590;BME280;12231;42.782;23.388;2023-07-29T07:37:30;95409.22;;;38.44;25.04
19590;BME280;12231;42.782;23.388;2023-07-29T07:39:56;95410.06;;;37.06;27.46
19590;BME280;12231;42.782;23.388;2023-07-29T07:42:21;95391.63;;;39.27;24.87
19590;BME280;12231;42.782;23.388;2023-07-29T07:44:47;95388.13;;;40.39;23.80
19590;BME280;12231;42.782;23.388;2023-07-29T07:47:12;95394.44;;;41.20;22.68
19590;BME280;12231;42.782;23.388;2023-07-29T07:49:38;95382.59;;;40.87;23.10
19590;BME280;12231;42.782;23.388;2023-07-29T07:52:03;95389.22;;;40.71;23.47
19590;BME280;12231;42.782;23.388;2023-07-29T07:54:29;95381.84;;;39.56;24.22
19590;BME280;12231;42.782;23.388;2023-07-29T07:56:54;95392.06;;;40.13;24.36
19590;BME280;12231;42.782;23.388;2023-07-29T07:59:19;95390.75;;;41.35;22.48
19590;BME280;12231;42.782;23.388;2023-07-29T08:01:45;95390.47;;;41.36;22.92
19590;BME280;12231;42.782;23.388;2023-07-29T08:04:10;95396.72;;;41.08;23.57
19590;BME280;12231;42.782;23.388;2023-07-29T08:06:37;95395.72;;;41.75;22.89
19590;BME280;12231;42.782;23.388;2023-07-29T08:09:02;95395.25;;;42.29;22.91
19590;BME280;12231;42.782;23.388;2023-07-29T08:11:28;95392.69;;;41.58;23.53
19590;BME280;12231;42.782;23.388;2023-07-29T08:13:53;95390.41;;;42.63;22.38
19590;BME280;12231;42.782;23.388;2023-07-29T08:16:18;95389.09;;;40.14;23.91
19590;BME280;12231;42.782;23.388;2023-07-29T08:18:44;95387.97;;;39.77;24.80
19590;BME280;12231;42.782;23.388;2023-07-29T08:21:09;95386.34;;;38.77;25.95
19590;BME280;12231;42.782;23.388;2023-07-29T08:23:35;95384.97;;;39.78;24.67
19590;BME280;12231;42.782;23.388;2023-07-29T08:26:04;95380.91;;;40.24;24.08
19590;BME280;12231;42.782;23.388;2023-07-29T08:28:31;95380.78;;;40.78;23.85
19590;BME280;12231;42.782;23.388;2023-07-29T08:30:57;95379.44;;;40.42;23.64
19590;BME280;12231;42.782;23.388;2023-07-29T08:33:23;95371.66;;;41.26;23.12
19590;BME280;12231;42.782;23.388;2023-07-29T08:35:48;95369.31;;;42.04;21.62
19590;BME280;12231;42.782;23.388;2023-07-29T08:38:14;95362.91;;;43.15;21.04
19590;BME280;12231;42.782;23.388;2023-07-29T08:40:49;95364.69;;;41.86;22.23
19590;BME280;12231;42.782;23.388;2023-07-29T08:43:17;95367.97;;;41.17;23.24
19590;BME280;12231;42.782;23.388;2023-07-29T08:45:44;95360.09;;;39.17;24.81
19590;BME280;12231;42.782;23.388;2023-07-29T08:48:11;95356.66;;;39.65;23.87
19590;BME280;12231;42.782;23.388;2023-07-29T08:50:37;95359.03;;;39.77;24.48
19590;BME280;12231;42.782;23.388;2023-07-29T08:53:06;95346.13;;;40.80;23.52
19590;BME280;12231;42.782;23.388;2023-07-29T08:55:32;95351.28;;;38.62;25.41
19590;BME280;12231;42.782;23.388;2023-07-29T08:57:59;95349.38;;;38.47;26.21
19590;BME280;12231;42.782;23.388;2023-07-29T09:00:28;95337.44;;;40.16;23.52
19590;BME280;12231;42.782;23.388;2023-07-29T09:02:53;95343.06;;;39.86;23.28
19590;BME280;12231;42.782;23.388;2023-07-29T09:05:21;95344.06;;;39.46;24.26
19590;BME280;12231;42.782;23.388;2023-07-29T09:07:47;95343.06;;;39.81;24.27
19590;BME280;12231;42.782;23.388;2023-07-29T09:10:13;95337.41;;;39.23;24.53
19590;BME280;12231;42.782;23.388;2023-07-29T09:12:39;95332.47;;;39.99;23.10
19590;BME280;12231;42.782;23.388;2023-07-29T09:15:05;95330.53;;;41.43;21.55
19590;BME280;12231;42.782;23.388;2023-07-29T09:17:33;95332.84;;;41.07;22.27
19590;BME280;12231;42.782;23.388;2023-07-29T09:19:58;95332.47;;;41.42;20.76
19590;BME280;12231;42.782;23.388;2023-07-29T09:22:24;95323.75;;;40.41;22.19
19590;BME280;12231;42.782;23.388;2023-07-29T09:24:52;95326.28;;;40.61;21.46
19590;BME280;12231;42.782;23.388;2023-07-29T09:27:27;95322.81;;;40.22;22.54
19590;BME280;12231;42.782;23.388;2023-07-29T09:29:56;95324.31;;;40.04;22.51
19590;BME280;12231;42.782;23.388;2023-07-29T09:32:23;95320.09;;;41.13;21.49
19590;BME280;12231;42.782;23.388;2023-07-29T09:34:48;95316.28;;;40.28;22.58
19590;BME280;12231;42.782;23.388;2023-07-29T09:39:47;95308.78;;;40.20;22.16
19590;BME280;12231;42.782;23.388;2023-07-29T09:42:22;95310.03;;;38.01;24.54
19590;BME280;12231;42.782;23.388;2023-07-29T09:44:49;95307.50;;;37.54;24.95
19590;BME280;12231;42.782;23.388;2023-07-29T09:47:25;95296.06;;;39.33;24.41
19590;BME280;12231;42.782;23.388;2023-07-29T09:49:51;95296.69;;;40.12;24.02
19590;BME280;12231;42.782;23.388;2023-07-29T09:52:18;95296.81;;;39.43;23.59
19590;BME280;12231;42.782;23.388;2023-07-29T09:54:44;95302.47;;;38.63;24.32
19590;BME280;12231;42.782;23.388;2023-07-29T09:57:11;95300.88;;;38.62;24.22
19590;BME280;12231;42.782;23.388;2023-07-29T09:59:37;95302.13;;;36.87;26.82
19590;BME280;12231;42.782;23.388;2023-07-29T10:02:03;95293.63;;;38.27;25.73
19590;BME280;12231;42.782;23.388;2023-07-29T10:04:29;95296.03;;;37.94;25.51
19590;BME280;12231;42.782;23.388;2023-07-29T10:06:56;95292.50;;;38.69;24.07
19590;BME280;12231;42.782;23.388;2023-07-29T10:09:23;95290.28;;;38.86;23.90
19590;BME280;12231;42.782;23.388;2023-07-29T10:11:50;95291.47;;;38.19;24.70
19590;BME280;12231;42.782;23.388;2023-07-29T10:14:16;95283.91;;;38.06;26.16
19590;BME280;12231;42.782;23.388;2023-07-29T10:16:43;95283.25;;;37.34;26.89
19590;BME280;12231;42.782;23.388;2023-07-29T10:19:12;95280.06;;;36.80;28.37
19590;BME280;12231;42.782;23.388;2023-07-29T10:21:42;95283.53;;;37.48;27.59
19590;BME280;12231;42.782;23.388;2023-07-29T10:24:15;95274.84;;;37.21;26.80
19590;BME280;12231;42.782;23.388;2023-07-29T10:26:46;95269.03;;;35.77;27.23
19590;BME280;12231;42.782;23.388;2023-07-29T10:29:13;95269.09;;;35.50;28.38
19590;BME280;12231;42.782;23.388;2023-07-29T10:31:40;95259.84;;;35.68;27.97
19590;BME280;12231;42.782;23.388;2023-07-29T10:34:08;95260.22;;;34.42;28.24
19590;BME280;12231;42.782;23.388;2023-07-29T10:36:35;95253.91;;;33.98;30.17
19590;BME280;12231;42.782;23.388;2023-07-29T10:39:00;95249.38;;;34.15;31.01
19590;BME280;12231;42.782;23.388;2023-07-29T10:41:58;95247.41;;;33.61;30.91
19590;BME280;12231;42.782;23.388;2023-07-29T10:47:15;95247.41;;;33.78;29.94
19590;BME280;12231;42.782;23.388;2023-07-29T10:49:45;95248.13;;;32.89;31.71
19590;BME280;12231;42.782;23.388;2023-07-29T10:52:40;95237.28;;;33.96;29.80
19590;BME280;12231;42.782;23.388;2023-07-29T10:55:34;95235.56;;;34.61;30.57
19590;BME280;12231;42.782;23.388;2023-07-29T10:58:14;95234.97;;;34.98;29.36
19590;BME280;12231;42.782;23.388;2023-07-29T11:00:43;95228.06;;;34.25;29.49
19590;BME280;12231;42.782;23.388;2023-07-29T11:03:09;95222.66;;;33.54;31.80
19590;BME280;12231;42.782;23.388;2023-07-29T11:05:52;95220.97;;;33.65;30.57
19590;BME280;12231;42.782;23.388;2023-07-29T11:08:28;95215.97;;;33.68;30.89
19590;BME280;12231;42.782;23.388;2023-07-29T11:11:04;95219.09;;;33.20;32.85
19590;BME280;12231;42.782;23.388;2023-07-29T11:13:31;95221.75;;;33.04;31.37
19590;BME280;12231;42.782;23.388;2023-07-29T11:15:58;95218.19;;;33.43;31.99
19590;BME280;12231;42.782;23.388;2023-07-29T11:18:34;95214.72;;;33.59;30.59
19590;BME280;12231;42.782;23.388;2023-07-29T11:21:02;95208.03;;;34.44;30.52
19590;BME280;12231;42.782;23.388;2023-07-29T11:23:33;95207.69;;;35.06;29.59
19590;BME280;12231;42.782;23.388;2023-07-29T11:25:59;95206.78;;;34.74;30.21
19590;BME280;12231;42.782;23.388;2023-07-29T11:28:25;95220.31;;;33.74;31.08
19590;BME280;12231;42.782;23.388;2023-07-29T11:30:51;95202.00;;;33.50;32.04
19590;BME280;12231;42.782;23.388;2023-07-29T11:33:19;95200.22;;;33.55;31.47
19590;BME280;12231;42.782;23.388;2023-07-29T11:35:45;95203.78;;;33.77;30.95
19590;BME280;12231;42.782;23.388;2023-07-29T11:38:15;95200.03;;;34.11;30.76
19590;BME280;12231;42.782;23.388;2023-07-29T11:40:40;95192.13;;;34.38;30.77
19590;BME280;12231;42.782;23.388;2023-07-29T11:43:06;95187.63;;;34.87;30.23
19590;BME280;12231;42.782;23.388;2023-07-29T11:45:31;95196.88;;;34.52;28.65
19590;BME280;12231;42.782;23.388;2023-07-29T11:47:58;95186.34;;;34.46;29.46
19590;BME280;12231;42.782;23.388;2023-07-29T11:50:23;95188.97;;;34.41;30.19
19590;BME280;12231;42.782;23.388;2023-07-29T11:52:49;95177.44;;;35.10;28.38
19590;BME280;12231;42.782;23.388;2023-07-29T11:55:15;95181.34;;;34.76;28.31
19590;BME280;12231;42.782;23.388;2023-07-29T11:57:42;95179.28;;;34.40;27.34
19590;BME280;12231;42.782;23.388;2023-07-29T12:00:09;95182.97;;;33.96;28.42
19590;BME280;12231;42.782;23.388;2023-07-29T12:02:42;95177.59;;;33.79;28.11
19590;BME280;12231;42.782;23.388;2023-07-29T12:05:12;95176.38;;;34.03;26.59
19590;BME280;12231;42.782;23.388;2023-07-29T12:07:39;95168.91;;;33.72;25.55
19590;BME280;12231;42.782;23.388;2023-07-29T12:10:05;95163.63;;;34.10;25.33
19590;BME280;12231;42.782;23.388;2023-07-29T12:12:31;95167.47;;;34.57;25.03
19590;BME280;12231;42.782;23.388;2023-07-29T12:14:57;95166.97;;;34.60;24.73
19590;BME280;12231;42.782;23.388;2023-07-29T12:17:22;95160.09;;;34.48;24.75
19590;BME280;12231;42.782;23.388;2023-07-29T12:19:48;95160.28;;;34.41;25.05
19590;BME280;12231;42.782;23.388;2023-07-29T12:22:18;95156.97;;;34.34;24.12
19590;BME280;12231;42.782;23.388;2023-07-29T12:24:44;95150.56;;;34.35;22.96
19590;BME280;12231;42.782;23.388;2023-07-29T12:27:14;95151.69;;;34.61;23.42
19590;BME280;12231;42.782;23.388;2023-07-29T12:29:42;95145.34;;;34.67;22.96
19590;BME280;12231;42.782;23.388;2023-07-29T12:32:08;95153.44;;;34.72;23.26
19590;BME280;12231;42.782;23.388;2023-07-29T12:34:35;95147.38;;;34.82;22.80
19590;BME280;12231;42.782;23.388;2023-07-29T12:37:02;95147.97;;;34.62;22.54
19590;BME280;12231;42.782;23.388;2023-07-29T12:39:30;95144.28;;;34.68;22.69
19590;BME280;12231;42.782;23.388;2023-07-29T12:41:58;95141.53;;;35.38;22.82
19590;BME280;12231;42.782;23.388;2023-07-29T12:44:25;95138.16;;;34.73;22.60
19590;BME280;12231;42.782;23.388;2023-07-29T12:46:51;95143.28;;;34.31;23.66
19590;BME280;12231;42.782;23.388;2023-07-29T12:49:17;95147.16;;;34.61;22.99
19590;BME280;12231;42.782;23.388;2023-07-29T12:51:43;95143.66;;;34.61;23.09
19590;BME280;12231;42.782;23.388;2023-07-29T12:54:08;95154.25;;;34.94;22.55
19590;BME280;12231;42.782;23.388;2023-07-29T12:56:34;95145.69;;;35.24;22.77
19590;BME280;12231;42.782;23.388;2023-07-29T12:59:01;95152.75;;;34.82;22.56